Terminal Aerodrome Forecast
Issued by NWS Cleveland, OH

Home | Current Version | Previous Version | Graphics & Text | Print | Product List | Glossary Off
Versions: 1 2 3 4 5 6 7 8 9 10 11 12 13 14 15 16 17 18 19 20 21 22

000
FTUS41 KCLE 270500
TAFMFD
TAF
KMFD 270525Z 2706/2806 32003KT P6SM BKN030
      TEMPO 2706/2710 SCT030
     FM271000 32003KT P6SM SCT030
     FM271400 27006KT P6SM SCT030
     FM272300 24003KT P6SM SKC=

USA.gov is the U.S. government's official web portal to all federal, state and local government web resources and services.